Time;durP1;ratioP1;P1;durP2;ratioP2;P2;SDS_P1;SDS_P2;PMS_P1;PMS_P2;Temp;Humidity;BMP_temperature;BMP_pressure;BME280_temperature;BME280_humidity;BME280_pressure;Samples;Min_cycle;Max_cycle;Signal;HPM_P1;HPM_P2
2023/03/04 00:00:15;;;;;;;0.60;0.60;;;0.50;99.90;;;;;;5074830;28;20177;-70
2023/03/04 00:02:41;;;;;;;0.50;0.50;;;0.50;99.90;;;;;;5073997;28;20232;-71
2023/03/04 00:05:07;;;;;;;0.60;0.60;;;0.50;99.90;;;;;;5074560;28;20720;-69
2023/03/04 00:07:32;;;;;;;0.60;0.60;;;0.50;99.90;;;;;;5073874;28;20199;-70
2023/03/04 00:09:58;;;;;;;0.70;0.70;;;0.50;99.90;;;;;;5074681;28;20208;-69
2023/03/04 00:12:24;;;;;;;0.70;0.70;;;0.50;99.90;;;;;;5074273;28;20196;-69
2023/03/04 00:14:50;;;;;;;0.70;0.70;;;0.50;99.90;;;;;;5074240;28;20560;-69
2023/03/04 00:17:15;;;;;;;0.60;0.60;;;0.50;99.90;;;;;;5074724;28;20220;-70
2023/03/04 00:19:41;;;;;;;0.60;0.60;;;0.50;99.90;;;;;;5074429;28;20215;-69
2023/03/04 00:22:07;;;;;;;0.70;0.70;;;0.50;99.90;;;;;;5074273;28;20368;-69
2023/03/04 00:24:33;;;;;;;0.57;0.57;;;0.40;99.90;;;;;;5052776;28;20198;-69
2023/03/04 00:26:59;;;;;;;0.68;0.68;;;0.40;99.90;;;;;;5054395;28;20190;-69
2023/03/04 00:29:25;;;;;;;0.60;0.60;;;0.40;99.90;;;;;;5054089;28;20690;-69
2023/03/04 00:31:51;;;;;;;0.55;0.55;;;0.30;99.90;;;;;;5054365;28;20197;-70
2023/03/04 00:34:17;;;;;;;0.80;0.80;;;0.30;99.90;;;;;;5052986;28;20609;-69
2023/03/04 00:36:43;;;;;;;0.60;0.60;;;0.30;99.90;;;;;;5054128;28;20193;-69
2023/03/04 00:39:11;;;;;;;0.60;0.60;;;0.30;99.90;;;;;;5054220;28;20220;-69
2023/03/04 00:41:37;;;;;;;0.70;0.70;;;0.30;99.90;;;;;;5054002;28;20189;-69
2023/03/04 00:44:04;;;;;;;0.70;0.70;;;0.30;99.90;;;;;;5053769;28;20200;-69
2023/03/04 00:46:30;;;;;;;0.70;0.70;;;0.30;99.90;;;;;;5053042;28;20205;-69
2023/03/04 00:48:55;;;;;;;0.70;0.70;;;0.30;99.90;;;;;;5052506;28;20205;-69
2023/03/04 00:51:21;;;;;;;0.60;0.60;;;0.30;99.90;;;;;;5053776;28;20284;-69
2023/03/04 00:53:47;;;;;;;0.60;0.60;;;0.20;99.90;;;;;;5054035;28;20207;-69
2023/03/04 00:56:13;;;;;;;0.68;0.68;;;0.20;99.90;;;;;;5053871;28;20497;-69
2023/03/04 00:58:39;;;;;;;0.60;0.60;;;0.20;99.90;;;;;;5065541;28;20215;-69
2023/03/04 01:01:06;;;;;;;0.50;0.50;;;0.20;99.90;;;;;;5073578;28;20667;-69
2023/03/04 01:03:32;;;;;;;0.70;0.70;;;0.20;99.90;;;;;;5073163;28;20221;-69
2023/03/04 01:05:58;;;;;;;0.60;0.60;;;0.10;99.90;;;;;;5073730;28;20199;-69
2023/03/04 01:08:25;;;;;;;0.50;0.50;;;0.10;99.90;;;;;;5073188;28;20216;-69
2023/03/04 01:10:51;;;;;;;0.70;0.70;;;0.10;99.90;;;;;;5073550;28;20212;-68
2023/03/04 01:13:17;;;;;;;0.70;0.70;;;0.10;99.90;;;;;;5073542;28;20652;-69
2023/03/04 01:15:43;;;;;;;0.55;0.55;;;0.00;99.90;;;;;;5073368;28;20659;-69
2023/03/04 01:18:09;;;;;;;0.60;0.60;;;0.00;99.90;;;;;;5073184;28;20237;-68
2023/03/04 01:20:35;;;;;;;0.60;0.60;;;0.00;99.90;;;;;;5073062;28;20213;-68
2023/03/04 01:23:00;;;;;;;0.60;0.60;;;0.00;99.90;;;;;;5072802;28;20206;-69
2023/03/04 01:25:26;;;;;;;0.60;0.60;;;0.00;99.90;;;;;;5072420;28;20188;-69
2023/03/04 01:27:52;;;;;;;0.70;0.70;;;-0.10;99.90;;;;;;5073401;28;20275;-69
2023/03/04 01:30:18;;;;;;;0.60;0.60;;;-0.20;99.90;;;;;;5055295;28;20265;-69
2023/03/04 01:32:43;;;;;;;0.60;0.60;;;-0.20;99.90;;;;;;5055137;28;20197;-69
2023/03/04 01:35:09;;;;;;;0.60;0.60;;;-0.20;99.90;;;;;;5073280;28;20189;-70
2023/03/04 01:37:35;;;;;;;0.60;0.60;;;-0.20;99.90;;;;;;5072877;28;20192;-68
2023/03/04 01:40:01;;;;;;;0.80;0.80;;;-0.20;99.90;;;;;;5073177;28;20276;-69
2023/03/04 01:42:30;;;;;;;0.60;0.60;;;-0.30;99.90;;;;;;5054971;28;20370;-69
2023/03/04 01:44:56;;;;;;;0.70;0.70;;;-0.20;99.90;;;;;;5055006;28;20634;-69
2023/03/04 01:47:30;;;;;;;0.50;0.50;;;-0.30;99.90;;;;;;5072817;28;20224;-69
2023/03/04 01:49:57;;;;;;;0.60;0.60;;;-0.30;99.90;;;;;;5072919;28;20208;-69
2023/03/04 01:52:26;;;;;;;1.10;1.05;;;-0.30;99.90;;;;;;5072732;28;20184;-69
2023/03/04 01:54:51;;;;;;;0.60;0.60;;;-0.40;99.90;;;;;;5072378;28;20201;-69
2023/03/04 01:57:20;;;;;;;0.70;0.70;;;-0.50;99.90;;;;;;5076630;28;20258;-69
2023/03/04 01:59:47;;;;;;;0.60;0.60;;;-0.40;99.90;;;;;;5079522;28;20197;-69
2023/03/04 02:02:13;;;;;;;0.60;0.60;;;-0.50;99.90;;;;;;5079546;28;20196;-69
2023/03/04 02:04:41;;;;;;;0.50;0.50;;;-0.50;99.90;;;;;;5086296;22;20224;-68
2023/03/04 02:07:07;;;;;;;0.60;0.60;;;-0.50;99.90;;;;;;5061313;28;20196;-68
2023/03/04 02:09:34;;;;;;;0.60;0.60;;;-0.50;99.90;;;;;;5061086;28;20602;-69
2023/03/04 02:12:00;;;;;;;0.60;0.60;;;-0.60;99.90;;;;;;5079210;28;20287;-70
2023/03/04 02:14:26;;;;;;;0.60;0.60;;;-0.60;99.90;;;;;;5078753;28;20192;-70
2023/03/04 02:16:52;;;;;;;0.70;0.70;;;-0.60;99.90;;;;;;5061130;28;20192;-69
2023/03/04 02:19:40;;;;;;;0.63;0.63;;;-0.60;99.90;;;;;;5060988;28;20635;-71
2023/03/04 02:22:06;;;;;;;0.70;0.70;;;-0.70;99.90;;;;;;5079314;28;20746;-70
2023/03/04 02:25:09;;;;;;;0.57;0.57;;;-0.70;99.90;;;;;;5057121;28;20240;-69
2023/03/04 02:27:35;;;;;;;0.70;0.70;;;-0.60;99.90;;;;;;5046433;28;20212;-70
2023/03/04 02:30:01;;;;;;;0.50;0.50;;;-0.70;99.90;;;;;;5057732;28;20209;-72
2023/03/04 02:32:27;;;;;;;0.52;0.52;;;-0.80;99.90;;;;;;5057490;28;20193;-69
2023/03/04 02:34:53;;;;;;;0.50;0.50;;;-0.80;99.90;;;;;;5059042;28;20242;-69
2023/03/04 02:37:20;;;;;;;0.70;0.70;;;-0.70;99.90;;;;;;5040573;28;20205;-71
2023/03/04 02:39:48;;;;;;;0.70;0.70;;;-0.70;99.90;;;;;;5058855;28;20192;-69
2023/03/04 02:42:15;;;;;;;0.57;0.57;;;-0.70;99.90;;;;;;5057638;28;20205;-69
2023/03/04 02:44:45;;;;;;;0.68;0.68;;;-0.70;99.90;;;;;;5058599;28;20198;-69
2023/03/04 02:47:13;;;;;;;0.60;0.60;;;-0.70;99.90;;;;;;5059039;28;20193;-68
2023/03/04 02:49:40;;;;;;;0.60;0.60;;;-0.70;99.90;;;;;;5056812;28;20228;-69
2023/03/04 02:52:16;;;;;;;0.68;0.68;;;-0.80;99.90;;;;;;5058640;28;20725;-69
2023/03/04 02:54:42;;;;;;;0.63;0.63;;;-0.80;99.90;;;;;;5058363;28;20241;-69
2023/03/04 02:57:10;;;;;;;0.70;0.70;;;-0.80;99.90;;;;;;5058693;28;20221;-69
2023/03/04 02:59:36;;;;;;;0.70;0.70;;;-0.90;99.90;;;;;;5058349;28;20204;-69
2023/03/04 03:02:03;;;;;;;0.70;0.70;;;-1.00;99.90;;;;;;5074519;28;20196;-69
2023/03/04 03:04:28;;;;;;;0.50;0.50;;;-1.00;99.90;;;;;;5078307;28;20311;-69
2023/03/04 03:06:54;;;;;;;0.60;0.60;;;-1.00;99.90;;;;;;5078702;28;20273;-69
2023/03/04 03:09:21;;;;;;;0.60;0.60;;;-0.90;99.90;;;;;;5075788;28;20235;-70
2023/03/04 03:11:47;;;;;;;0.60;0.60;;;-1.00;99.90;;;;;;5075269;28;20201;-69
2023/03/04 03:14:12;;;;;;;0.80;0.80;;;-1.00;99.90;;;;;;5057475;28;20208;-69
2023/03/04 03:16:38;;;;;;;0.68;0.68;;;-1.10;99.90;;;;;;5075238;28;20192;-68
2023/03/04 03:19:04;;;;;;;0.70;0.70;;;-1.10;99.90;;;;;;5075367;28;20193;-69
2023/03/04 03:21:30;;;;;;;0.80;0.80;;;-1.10;99.90;;;;;;5075260;28;20617;-68
2023/03/04 03:23:56;;;;;;;0.70;0.70;;;-1.10;99.50;;;;;;5074992;28;20280;-69
2023/03/04 03:26:22;;;;;;;0.70;0.70;;;-1.20;99.90;;;;;;5075241;28;20200;-69
2023/03/04 03:28:48;;;;;;;0.63;0.63;;;-1.20;99.10;;;;;;5075166;28;20303;-69
2023/03/04 03:31:14;;;;;;;0.60;0.60;;;-1.20;99.60;;;;;;5056876;28;20210;-69
2023/03/04 03:33:39;;;;;;;0.77;0.77;;;-1.30;99.60;;;;;;5056661;28;20232;-69
2023/03/04 03:36:06;;;;;;;0.70;0.70;;;-1.30;99.50;;;;;;5057276;28;20550;-69
2023/03/04 03:38:32;;;;;;;0.65;0.65;;;-1.40;99.90;;;;;;5056891;28;20200;-68
2023/03/04 03:40:58;;;;;;;0.60;0.60;;;-1.50;99.90;;;;;;5056789;28;20566;-68
2023/03/04 03:43:23;;;;;;;0.70;0.70;;;-1.40;99.90;;;;;;5057158;28;20295;-69
2023/03/04 03:45:50;;;;;;;0.70;0.70;;;-1.50;99.90;;;;;;5057351;28;20716;-69
2023/03/04 03:48:16;;;;;;;0.80;0.80;;;-1.50;99.90;;;;;;5074586;28;20297;-69
2023/03/04 03:50:42;;;;;;;0.60;0.60;;;-1.60;99.90;;;;;;5074688;28;20200;-68
2023/03/04 03:53:08;;;;;;;0.80;0.80;;;-1.60;99.90;;;;;;5056964;28;20193;-68
2023/03/04 03:55:34;;;;;;;0.80;0.80;;;-1.60;99.90;;;;;;5074579;28;20220;-68
2023/03/04 03:57:59;;;;;;;0.60;0.60;;;-1.70;99.90;;;;;;5056698;28;20197;-69
2023/03/04 04:00:25;;;;;;;0.70;0.70;;;-1.80;99.90;;;;;;5074255;28;20201;-69
2023/03/04 04:02:56;;;;;;;0.73;0.73;;;-1.80;99.90;;;;;;5069867;28;20208;-69
2023/03/04 04:05:22;;;;;;;0.75;0.75;;;-1.90;99.90;;;;;;5053933;28;20272;-69
2023/03/04 04:07:48;;;;;;;0.70;0.70;;;-1.90;99.90;;;;;;5070228;28;20201;-68
2023/03/04 04:10:14;;;;;;;0.68;0.68;;;-1.80;99.90;;;;;;5074322;28;20581;-67
2023/03/04 04:12:39;;;;;;;0.73;0.73;;;-1.80;99.90;;;;;;5073874;28;20747;-68
2023/03/04 04:15:06;;;;;;;0.80;0.80;;;-1.80;99.90;;;;;;5074349;28;20204;-68
2023/03/04 04:17:32;;;;;;;0.73;0.73;;;-1.80;99.90;;;;;;5056030;28;20193;-68
2023/03/04 04:19:57;;;;;;;6.72;1.98;;;-1.90;99.90;;;;;;5055639;28;20193;-68
2023/03/04 04:22:23;;;;;;;0.70;0.70;;;-1.90;99.90;;;;;;5055774;28;20291;-68
2023/03/04 04:24:49;;;;;;;0.60;0.60;;;-1.80;99.90;;;;;;5073818;28;20279;-69
2023/03/04 04:27:14;;;;;;;0.70;0.70;;;-1.80;99.90;;;;;;5074031;28;20189;-69
2023/03/04 04:29:40;;;;;;;0.80;0.80;;;-1.90;99.90;;;;;;5073715;28;20577;-69
2023/03/04 04:32:07;;;;;;;0.80;0.80;;;-2.00;99.90;;;;;;5073871;28;20742;-69
2023/03/04 04:34:33;;;;;;;0.80;0.80;;;-2.00;99.90;;;;;;5073738;28;20334;-69
2023/03/04 04:36:59;;;;;;;0.70;0.70;;;-2.10;99.90;;;;;;5073778;28;20279;-69
2023/03/04 04:39:25;;;;;;;0.60;0.60;;;-2.00;99.90;;;;;;5073908;28;20272;-69
2023/03/04 04:41:50;;;;;;;0.70;0.70;;;-2.00;99.90;;;;;;5073721;28;20200;-68
2023/03/04 04:44:16;;;;;;;0.65;0.65;;;-2.00;99.90;;;;;;5072960;28;20207;-69
2023/03/04 04:46:42;;;;;;;0.65;0.65;;;-2.10;99.90;;;;;;5093712;28;20188;-69
2023/03/04 04:49:08;;;;;;;0.60;0.60;;;-2.10;99.90;;;;;;5094044;28;20204;-68
2023/03/04 04:51:35;;;;;;;0.70;0.70;;;-2.00;99.90;;;;;;5093316;28;20206;-68
2023/03/04 04:54:02;;;;;;;0.70;0.70;;;-2.00;99.70;;;;;;5075598;28;20663;-69
2023/03/04 04:56:28;;;;;;;0.73;0.73;;;-2.10;99.90;;;;;;5075462;28;20196;-69
2023/03/04 04:58:57;;;;;;;0.80;0.80;;;-2.10;99.90;;;;;;5075261;28;20284;-68
2023/03/04 05:01:24;;;;;;;0.80;0.80;;;-2.20;99.90;;;;;;5093380;28;20206;-69
2023/03/04 05:03:52;;;;;;;0.80;0.80;;;-2.20;99.90;;;;;;5060627;28;20225;-69
2023/03/04 05:06:18;;;;;;;0.80;0.80;;;-2.30;99.90;;;;;;5073238;28;20279;-69
2023/03/04 05:08:44;;;;;;;0.70;0.70;;;-2.40;99.90;;;;;;5073123;28;20689;-68
2023/03/04 05:11:10;;;;;;;0.70;0.70;;;-2.40;99.90;;;;;;5073359;28;20301;-68
2023/03/04 05:13:36;;;;;;;0.80;0.80;;;-2.50;99.90;;;;;;5055042;28;20222;-69
2023/03/04 05:16:02;;;;;;;0.70;0.70;;;-2.40;99.90;;;;;;5073297;28;20656;-68
2023/03/04 05:18:27;;;;;;;0.80;0.80;;;-2.30;99.90;;;;;;5072953;28;20264;-69
2023/03/04 05:20:56;;;;;;;0.90;0.90;;;-2.20;99.90;;;;;;5055228;28;20698;-68
2023/03/04 05:23:22;;;;;;;0.70;0.70;;;-2.10;99.90;;;;;;5051394;28;20194;-68
2023/03/04 05:25:49;;;;;;;0.75;0.75;;;-2.20;99.90;;;;;;5053275;28;20262;-69
2023/03/04 05:28:15;;;;;;;0.63;0.63;;;-2.20;99.90;;;;;;5052924;28;20204;-69
2023/03/04 05:30:42;;;;;;;0.60;0.60;;;-2.30;99.90;;;;;;5051274;28;20552;-68
2023/03/04 05:33:10;;;;;;;0.68;0.68;;;-2.20;99.90;;;;;;5050882;28;20193;-73
2023/03/04 05:35:36;;;;;;;0.75;0.75;;;-2.20;99.90;;;;;;5051749;28;20225;-73
2023/03/04 05:38:04;;;;;;;0.80;0.80;;;-2.20;99.90;;;;;;5051860;28;20221;-73
2023/03/04 05:40:29;;;;;;;0.70;0.70;;;-2.20;99.90;;;;;;5069911;28;20204;-73
2023/03/04 05:42:55;;;;;;;0.70;0.70;;;-2.30;99.90;;;;;;5055409;28;20201;-73
2023/03/04 05:45:21;;;;;;;0.80;0.80;;;-2.30;99.90;;;;;;5072873;28;20201;-73
2023/03/04 05:47:48;;;;;;;0.70;0.70;;;-2.30;99.90;;;;;;5055228;28;20200;-73
2023/03/04 05:50:13;;;;;;;0.80;0.80;;;-2.30;99.90;;;;;;5073090;28;20223;-74
2023/03/04 05:52:39;;;;;;;0.63;0.63;;;-2.30;99.90;;;;;;5054889;28;20217;-73
2023/03/04 05:55:06;;;;;;;0.60;0.60;;;-2.30;99.90;;;;;;5072990;28;20199;-73
2023/03/04 05:57:31;;;;;;;0.70;0.70;;;-2.40;99.90;;;;;;5073013;28;20188;-73
2023/03/04 05:59:57;;;;;;;0.70;0.70;;;-2.30;99.90;;;;;;5054852;28;20736;-73
2023/03/04 06:02:23;;;;;;;0.70;0.70;;;-2.40;99.90;;;;;;5054702;28;20200;-73
2023/03/04 06:04:48;;;;;;;0.80;0.80;;;-2.40;99.90;;;;;;5072916;28;20224;-73
2023/03/04 06:07:14;;;;;;;0.70;0.70;;;-2.30;99.90;;;;;;5073104;28;20216;-73
2023/03/04 06:09:40;;;;;;;0.88;0.88;;;-2.40;99.90;;;;;;5072221;28;20636;-73
2023/03/04 06:12:06;;;;;;;0.70;0.70;;;-2.30;99.90;;;;;;5072276;28;20729;-73
2023/03/04 06:14:32;;;;;;;0.60;0.60;;;-2.40;99.90;;;;;;5072933;28;20622;-73
2023/03/04 06:16:57;;;;;;;0.73;0.73;;;-2.40;99.90;;;;;;5072838;28;20216;-73
2023/03/04 06:19:23;;;;;;;0.60;0.60;;;-2.40;99.90;;;;;;5054923;28;20228;-73
2023/03/04 06:21:49;;;;;;;0.60;0.60;;;-2.40;99.90;;;;;;5034872;28;20201;-73
2023/03/04 06:24:15;;;;;;;0.70;0.70;;;-2.40;99.90;;;;;;5063188;28;20197;-75
2023/03/04 06:26:40;;;;;;;0.63;0.63;;;-2.40;99.90;;;;;;5072593;28;20207;-75
2023/03/04 06:29:06;;;;;;;0.70;0.70;;;-2.30;99.90;;;;;;5072606;28;20209;-74
2023/03/04 06:31:32;;;;;;;0.63;0.63;;;-2.30;99.90;;;;;;5072527;28;20242;-75
2023/03/04 06:33:58;;;;;;;0.80;0.80;;;-2.30;99.90;;;;;;5072688;28;20196;-75
2023/03/04 06:36:23;;;;;;;0.75;0.75;;;-2.30;99.90;;;;;;5072065;28;20247;-74
2023/03/04 06:38:49;;;;;;;0.75;0.75;;;-2.20;99.90;;;;;;5072583;28;20197;-74
2023/03/04 06:41:15;;;;;;;0.75;0.75;;;-2.20;99.90;;;;;;5072551;28;20212;-75
2023/03/04 06:43:41;;;;;;;0.77;0.77;;;-2.20;99.90;;;;;;5074490;28;20197;-75
2023/03/04 06:46:08;;;;;;;0.70;0.70;;;-2.10;99.90;;;;;;5058328;28;20589;-74
2023/03/04 06:48:34;;;;;;;0.70;0.70;;;-2.10;99.90;;;;;;5075487;28;20731;-75
2023/03/04 06:51:05;;;;;;;0.70;0.70;;;-2.10;99.90;;;;;;5075809;28;20220;-74
2023/03/04 06:53:31;;;;;;;0.70;0.70;;;-2.10;99.90;;;;;;5075998;28;20203;-74
2023/03/04 06:55:57;;;;;;;0.77;0.77;;;-2.00;99.90;;;;;;5058071;28;20683;-74
2023/03/04 06:58:22;;;;;;;0.70;0.70;;;-2.00;99.90;;;;;;5076011;28;20189;-74
2023/03/04 07:00:48;;;;;;;0.80;0.80;;;-2.00;99.90;;;;;;5075865;28;20189;-74
2023/03/04 07:03:14;;;;;;;0.80;0.80;;;-2.00;99.90;;;;;;5075797;28;20242;-74
2023/03/04 07:05:41;;;;;;;0.73;0.73;;;-1.90;99.90;;;;;;5075476;28;20243;-74
2023/03/04 07:08:06;;;;;;;0.60;0.60;;;-1.90;99.90;;;;;;5058324;28;20200;-74
2023/03/04 07:10:34;;;;;;;0.65;0.65;;;-1.90;99.90;;;;;;5057570;28;20240;-74
2023/03/04 07:13:00;;;;;;;0.60;0.60;;;-1.90;99.90;;;;;;5075721;28;20195;-75
2023/03/04 07:15:26;;;;;;;0.95;0.95;;;-1.90;99.90;;;;;;5041240;28;20211;-74
2023/03/04 07:17:52;;;;;;;1.25;1.10;;;-1.80;99.90;;;;;;5037800;28;20217;-74
2023/03/04 07:20:18;;;;;;;0.60;0.60;;;-1.80;99.90;;;;;;5037662;28;20709;-75
2023/03/04 07:22:44;;;;;;;0.63;0.63;;;-1.70;99.90;;;;;;5055190;28;20638;-74
2023/03/04 07:25:09;;;;;;;0.70;0.70;;;-1.70;99.90;;;;;;5073368;28;20201;-74
2023/03/04 07:27:37;;;;;;;0.80;0.80;;;-1.60;99.90;;;;;;5057359;28;20201;-75
2023/03/04 07:30:04;;;;;;;0.52;0.52;;;-1.70;99.90;;;;;;5056751;28;20299;-76
2023/03/04 07:32:30;;;;;;;0.60;0.60;;;-1.60;99.90;;;;;;5075064;28;20197;-75
2023/03/04 07:34:56;;;;;;;0.63;0.63;;;-1.60;99.90;;;;;;5075134;28;20211;-73
2023/03/04 07:37:21;;;;;;;0.70;0.70;;;-1.50;99.90;;;;;;5056900;28;20189;-74
2023/03/04 07:39:47;;;;;;;0.60;0.60;;;-1.50;99.90;;;;;;5075224;28;20209;-74
2023/03/04 07:42:13;;;;;;;0.65;0.65;;;-1.40;99.90;;;;;;5075247;28;20208;-75
2023/03/04 07:44:39;;;;;;;0.60;0.60;;;-1.40;99.90;;;;;;5074780;28;20197;-74
2023/03/04 07:47:04;;;;;;;0.68;0.68;;;-1.40;99.90;;;;;;5075118;28;20565;-74
2023/03/04 07:49:30;;;;;;;0.70;0.70;;;-1.40;99.90;;;;;;5074568;28;20200;-74
2023/03/04 07:51:56;;;;;;;0.73;0.73;;;-1.30;99.90;;;;;;5056791;28;20220;-74
2023/03/04 07:54:21;;;;;;;0.80;0.80;;;-1.20;99.90;;;;;;5055865;28;20542;-74
2023/03/04 07:56:47;;;;;;;0.60;0.60;;;-1.10;99.90;;;;;;5056780;28;20664;-74
2023/03/04 07:59:13;;;;;;;0.65;0.65;;;-1.00;99.90;;;;;;5074729;28;20232;-74
2023/03/04 08:01:38;;;;;;;0.70;0.70;;;-1.00;99.80;;;;;;5074464;28;20196;-74
2023/03/04 08:04:06;;;;;;;0.60;0.60;;;-0.90;99.60;;;;;;5074241;28;20720;-74
2023/03/04 08:06:32;;;;;;;0.52;0.52;;;-0.90;99.50;;;;;;5056586;28;20270;-74
2023/03/04 08:09:01;;;;;;;0.73;0.73;;;-0.80;99.90;;;;;;5056129;28;20213;-71
2023/03/04 08:11:28;;;;;;;0.70;0.70;;;-0.80;99.80;;;;;;5056390;28;20193;-73
2023/03/04 08:13:54;;;;;;;0.70;0.70;;;-0.80;99.40;;;;;;5074665;28;20193;-73
2023/03/04 08:16:22;;;;;;;0.70;0.70;;;-0.70;99.90;;;;;;5074501;28;20276;-72
2023/03/04 08:18:50;;;;;;;1.25;1.15;;;-0.70;99.90;;;;;;5074506;28;20200;-72
2023/03/04 08:21:18;;;;;;;0.70;0.70;;;-0.60;99.90;;;;;;5055737;28;20201;-73
2023/03/04 08:23:44;;;;;;;0.60;0.60;;;-0.60;99.90;;;;;;5073573;28;20608;-73
2023/03/04 08:26:19;;;;;;;0.77;0.77;;;-0.50;99.90;;;;;;5074280;28;20975;-73
2023/03/04 08:28:45;;;;;;;0.70;0.70;;;-0.60;99.00;;;;;;5055954;28;20203;-74
2023/03/04 08:31:16;;;;;;;1.08;0.90;;;-0.50;99.40;;;;;;5073917;28;20201;-74
2023/03/04 08:33:42;;;;;;;0.70;0.70;;;-0.50;98.70;;;;;;5056195;28;20196;-74
2023/03/04 08:36:09;;;;;;;0.70;0.70;;;-0.60;99.00;;;;;;5056083;28;20687;-71
2023/03/04 08:38:35;;;;;;;0.70;0.70;;;-0.50;99.40;;;;;;5073809;28;20732;-71
2023/03/04 08:41:02;;;;;;;0.57;0.57;;;-0.40;99.00;;;;;;5073883;28;20192;-71
2023/03/04 08:43:29;;;;;;;0.80;0.80;;;-0.20;99.10;;;;;;5073533;28;20185;-72
2023/03/04 08:45:55;;;;;;;0.70;0.70;;;-0.10;99.60;;;;;;5073763;28;20250;-75
2023/03/04 08:48:21;;;;;;;0.70;0.70;;;0.10;99.40;;;;;;5073594;28;20193;-75
2023/03/04 08:50:49;;;;;;;0.70;0.70;;;0.10;98.80;;;;;;5073767;28;20271;-74
2023/03/04 08:53:16;;;;;;;0.80;0.80;;;0.30;99.20;;;;;;5073016;28;20196;-74
2023/03/04 08:55:43;;;;;;;0.77;0.77;;;0.50;99.20;;;;;;5073568;28;20185;-74
2023/03/04 08:58:09;;;;;;;0.60;0.60;;;0.60;97.50;;;;;;5055988;28;20246;-74
2023/03/04 09:00:38;;;;;;;0.70;0.70;;;0.60;96.90;;;;;;5073517;28;20193;-74
2023/03/04 09:03:04;;;;;;;0.70;0.70;;;0.60;96.90;;;;;;5055663;28;20208;-73
2023/03/04 09:05:30;;;;;;;0.68;0.68;;;0.60;97.90;;;;;;5072924;28;20228;-73
2023/03/04 09:07:56;;;;;;;0.70;0.70;;;0.90;97.80;;;;;;5056922;28;20215;-74
2023/03/04 09:10:22;;;;;;;0.60;0.60;;;0.90;97.00;;;;;;5053220;28;20210;-73
2023/03/04 09:12:47;;;;;;;0.70;0.70;;;1.10;96.20;;;;;;5053122;28;20190;-73
2023/03/04 09:15:13;;;;;;;0.80;0.80;;;1.10;97.70;;;;;;5035432;28;20208;-72
2023/03/04 09:17:40;;;;;;;0.60;0.60;;;1.10;96.60;;;;;;5059587;28;20680;-72
2023/03/04 09:20:09;;;;;;;0.80;0.80;;;1.30;95.70;;;;;;5073330;28;20221;-72
2023/03/04 09:22:38;;;;;;;0.57;0.57;;;1.30;95.10;;;;;;5072965;28;20664;-71
2023/03/04 09:25:04;;;;;;;0.70;0.70;;;1.40;95.60;;;;;;5072235;28;20608;-72
2023/03/04 09:27:30;;;;;;;0.60;0.60;;;1.40;95.20;;;;;;5072253;28;20207;-71
2023/03/04 09:29:56;;;;;;;0.70;0.70;;;1.60;95.00;;;;;;5072923;28;20208;-72
2023/03/04 09:32:22;;;;;;;0.60;0.60;;;1.50;94.40;;;;;;5073029;28;20598;-72
2023/03/04 09:34:48;;;;;;;0.60;0.60;;;1.50;94.80;;;;;;5072672;28;20200;-73
2023/03/04 09:37:13;;;;;;;0.60;0.60;;;1.50;94.50;;;;;;5072923;28;20196;-73
2023/03/04 09:39:39;;;;;;;0.60;0.60;;;1.60;94.20;;;;;;5072850;28;20204;-72
2023/03/04 09:42:14;;;;;;;0.70;0.70;;;1.80;94.50;;;;;;5055192;28;20201;-74
2023/03/04 09:44:42;;;;;;;0.68;0.68;;;2.00;93.90;;;;;;5072790;28;20204;-72
2023/03/04 09:47:16;;;;;;;5.00;2.15;;;2.20;92.40;;;;;;5072975;28;20617;-73
2023/03/04 09:49:47;;;;;;;0.77;0.77;;;2.00;94.00;;;;;;5054722;28;20208;-73
2023/03/04 09:52:47;;;;;;;0.70;0.70;;;2.00;93.00;;;;;;5055057;28;20193;-74
2023/03/04 09:55:24;;;;;;;10.25;2.35;;;2.10;93.50;;;;;;5073053;28;20272;-72
2023/03/04 09:58:11;;;;;;;0.93;0.93;;;2.00;93.40;;;;;;5055066;28;20246;-74
2023/03/04 10:00:49;;;;;;;0.70;0.70;;;2.30;93.30;;;;;;5054148;28;20255;-72
2023/03/04 10:03:21;;;;;;;0.60;0.60;;;2.30;91.90;;;;;;5072157;28;20189;-72
2023/03/04 10:06:06;;;;;;;0.60;0.60;;;2.40;91.90;;;;;;5051406;28;20233;-72
2023/03/04 10:09:04;;;;;;;0.60;0.60;;;2.30;91.90;;;;;;5051960;28;20189;-72
2023/03/04 10:11:33;;;;;;;0.70;0.70;;;2.50;91.60;;;;;;5052591;28;20221;-72
2023/03/04 10:14:22;;;;;;;0.60;0.60;;;2.60;92.60;;;;;;5052854;28;20189;-74
2023/03/04 10:16:56;;;;;;;0.47;0.47;;;2.90;91.80;;;;;;5052706;28;20660;-73
2023/03/04 10:19:27;;;;;;;0.65;0.65;;;3.10;91.80;;;;;;5055937;28;20744;-72
2023/03/04 10:21:53;;;;;;;0.60;0.60;;;3.20;91.90;;;;;;5055052;28;20216;-72
2023/03/04 10:24:23;;;;;;;0.57;0.57;;;3.20;91.20;;;;;;5055785;28;20201;-71
2023/03/04 10:27:00;;;;;;;0.60;0.60;;;3.10;91.30;;;;;;5056071;28;20193;-71
2023/03/04 10:29:29;;;;;;;0.65;0.65;;;3.40;92.10;;;;;;5054652;28;20691;-71
2023/03/04 10:31:55;;;;;;;0.60;0.60;;;3.30;92.30;;;;;;5055978;28;20199;-71
2023/03/04 10:34:21;;;;;;;0.60;0.60;;;3.50;90.40;;;;;;5055692;28;20194;-72
2023/03/04 10:37:05;;;;;;;0.73;0.73;;;3.60;91.60;;;;;;5056058;28;20201;-71
2023/03/04 10:39:43;;;;;;;0.60;0.60;;;3.40;90.80;;;;;;5055930;28;20189;-71
2023/03/04 10:42:15;;;;;;;0.73;0.73;;;3.40;91.10;;;;;;5034967;28;20220;-71
2023/03/04 10:44:43;;;;;;;0.70;0.70;;;3.70;90.20;;;;;;5035997;28;20194;-71
2023/03/04 10:47:13;;;;;;;0.60;0.60;;;3.60;90.20;;;;;;5035974;28;20194;-71
2023/03/04 10:49:52;;;;;;;0.60;0.60;;;3.70;90.70;;;;;;5034417;28;20218;-71
2023/03/04 10:52:30;;;;;;;0.50;0.50;;;3.90;90.80;;;;;;5036001;28;20273;-71
2023/03/04 10:55:03;;;;;;;0.63;0.63;;;3.70;90.40;;;;;;5035990;28;20186;-71
2023/03/04 10:57:49;;;;;;;0.70;0.70;;;3.60;90.20;;;;;;5035578;28;20190;-71
2023/03/04 11:00:26;;;;;;;0.70;0.70;;;3.50;89.30;;;;;;5036006;28;20661;-71
2023/03/04 11:02:52;;;;;;;0.70;0.70;;;3.30;89.90;;;;;;5035645;28;20205;-71
2023/03/04 11:05:21;;;;;;;0.80;0.80;;;3.50;88.60;;;;;;5050914;28;20232;-71
2023/03/04 11:07:51;;;;;;;0.60;0.60;;;3.60;87.80;;;;;;5055397;28;20506;-71
2023/03/04 11:10:22;;;;;;;0.60;0.60;;;3.50;89.20;;;;;;5054382;28;20308;-71
2023/03/04 11:13:21;;;;;;;0.60;0.60;;;3.70;88.80;;;;;;5037506;28;20630;-71
2023/03/04 11:15:50;;;;;;;0.63;0.63;;;3.90;85.10;;;;;;5005711;28;20212;-71
2023/03/04 11:18:19;;;;;;;0.60;0.60;;;3.80;88.00;;;;;;5074721;28;20279;-71
2023/03/04 11:20:48;;;;;;;0.70;0.70;;;4.00;87.80;;;;;;5075056;28;20196;-71
2023/03/04 11:23:16;;;;;;;0.70;0.70;;;3.90;89.40;;;;;;5074913;28;20204;-72
2023/03/04 11:25:48;;;;;;;0.70;0.70;;;4.10;86.50;;;;;;5074936;28;20192;-72
2023/03/04 11:28:26;;;;;;;0.80;0.80;;;4.30;85.70;;;;;;5057544;28;20232;-72
2023/03/04 11:31:00;;;;;;;0.70;0.70;;;4.40;86.30;;;;;;5073907;28;20619;-72
2023/03/04 11:33:52;;;;;;;0.70;0.70;;;4.30;85.00;;;;;;5044730;28;20247;-72
2023/03/04 11:36:39;;;;;;;0.70;0.70;;;4.00;84.10;;;;;;5058487;28;20642;-75
2023/03/04 11:39:19;;;;;;;0.70;0.70;;;4.10;83.90;;;;;;5057214;28;20207;-75
2023/03/04 11:41:57;;;;;;;0.57;0.57;;;3.90;86.50;;;;;;5075061;28;20276;-75
2023/03/04 11:44:24;;;;;;;0.70;0.70;;;3.80;84.60;;;;;;5075027;28;20686;-74
2023/03/04 11:47:25;;;;;;;0.70;0.70;;;3.80;85.50;;;;;;5057214;28;20199;-79
2023/03/04 11:50:09;;;;;;;0.60;0.60;;;4.20;84.20;;;;;;5031163;28;20303;-76
2023/03/04 11:53:19;;;;;;;0.70;0.70;;;3.90;83.90;;;;;;5074771;28;20189;-76
2023/03/04 11:56:09;;;;;;;0.70;0.70;;;3.80;83.90;;;;;;5074799;28;20532;-76
2023/03/04 11:59:14;;;;;;;0.60;0.60;;;4.30;86.00;;;;;;5057038;28;20192;-75
2023/03/04 12:02:03;;;;;;;0.52;0.52;;;4.40;84.40;;;;;;5043543;28;20588;-75
2023/03/04 12:05:07;;;;;;;0.50;0.50;;;4.40;85.70;;;;;;5056280;28;20217;-74
2023/03/04 12:08:09;;;;;;;0.65;0.65;;;4.30;82.10;;;;;;5074435;28;20196;-74
2023/03/04 12:10:35;;;;;;;0.60;0.60;;;4.00;82.10;;;;;;5032841;28;20714;-74
2023/03/04 12:13:04;;;;;;;0.70;0.70;;;4.10;85.50;;;;;;5074404;28;20614;-74
2023/03/04 12:15:54;;;;;;;0.57;0.57;;;4.00;83.50;;;;;;5074573;28;20196;-73
2023/03/04 12:18:35;;;;;;;0.52;0.52;;;4.00;80.00;;;;;;5056012;28;20188;-74
2023/03/04 12:21:07;;;;;;;0.50;0.50;;;4.00;82.90;;;;;;5073965;28;20201;-75
2023/03/04 12:23:42;;;;;;;0.50;0.50;;;4.20;81.20;;;;;;5073488;28;20189;-74
2023/03/04 12:26:29;;;;;;;0.50;0.50;;;3.90;82.60;;;;;;5073917;28;20249;-76
2023/03/04 12:29:10;;;;;;;0.50;0.50;;;3.60;83.20;;;;;;5074217;28;20216;-75
2023/03/04 12:31:41;;;;;;;0.70;0.70;;;4.00;83.40;;;;;;5056139;28;20276;-74
2023/03/04 12:34:26;;;;;;;0.57;0.57;;;4.20;82.90;;;;;;5074027;28;20189;-75
2023/03/04 12:37:18;;;;;;;0.50;0.50;;;4.00;80.00;;;;;;5074246;28;20589;-75
2023/03/04 12:40:05;;;;;;;0.60;0.60;;;4.00;81.70;;;;;;5074003;28;20243;-74
2023/03/04 12:42:50;;;;;;;1.60;0.47;;;4.10;80.80;;;;;;5074168;28;20197;-76
2023/03/04 12:45:43;;;;;;;0.60;0.60;;;3.80;80.60;;;;;;5056071;28;20679;-75
2023/03/04 12:48:33;;;;;;;0.60;0.60;;;4.00;82.20;;;;;;5074010;28;20254;-76
2023/03/04 12:51:13;;;;;;;0.68;0.68;;;4.00;80.70;;;;;;5055946;28;20673;-74
2023/03/04 12:53:44;;;;;;;0.70;0.70;;;4.10;80.00;;;;;;5073618;28;20222;-75
2023/03/04 12:56:36;;;;;;;0.50;0.50;;;4.00;78.20;;;;;;5073839;28;20196;-75
2023/03/04 12:59:02;;;;;;;0.50;0.50;;;3.90;83.00;;;;;;5064371;28;20287;-75
2023/03/04 13:01:55;;;;;;;0.57;0.57;;;3.90;78.00;;;;;;5073429;28;20196;-73